LUKK/KIV METAR and TAF weather

Enter ICAO airport designator
Station Type Date Time Source
LUKK METAR 2021/07/30 08:00 UTC NOAA

LUKK 300800Z 02007KT 330V060 9999 SCT028 27/20 Q1013 R27/CLRD// NOSIG


Station Type Date Time Source
LUKK Decoded METAR 2021/07/30 08:00 UTC NOAA

Chisinau International Airport, Moldova (LUKK) 46-55-40N 028-55-51E
Jul 30, 2021 - 04:00 AM EDT / 2021.07.30 0800 UTC
Wind: from the NNE (020 degrees) at 8 MPH (7 KT) (direction variable):0
Visibility: greater than 7 mile(s):0
Sky conditions: partly cloudy
Temperature: 80 F (27 C)
Dew Point: 68 F (20 C)
Relative Humidity: 65%
Pressure (altimeter): 29.91 in. Hg (1013 hPa)
ob: LUKK 300800Z 02007KT 330V060 9999 SCT028 27/20 Q1013 R27/CLRD// NOSIG
cycle: 8

Station Type Date Time Source
LUKK TAF 2021/07/30 06:24 UTC NOAA

TAF TAF LUKK 300520Z 3006/3106 34008KT CAVOK
BECMG 3014/3015 VRB04KT
TEMPO 3015/3024 SCT045CB PROB40
TEMPO 3016/3022 VRB20G32KT 3000 TSRA BKN020CB

Example: see airport list